createdAt,value
2019-01-06T00:00:09.810Z,1019.84
2019-01-06T00:01:09.839Z,1019.83
2019-01-06T00:02:09.870Z,1019.84
2019-01-06T00:03:09.900Z,1019.80
2019-01-06T00:04:09.930Z,1019.82
2019-01-06T00:05:09.959Z,1019.83
2019-01-06T00:06:09.990Z,1019.83
2019-01-06T00:07:10.020Z,1019.82
2019-01-06T00:08:10.048Z,1019.83
2019-01-06T00:09:10.086Z,1019.84
2019-01-06T00:10:10.109Z,1019.79
2019-01-06T00:11:10.140Z,1019.82
2019-01-06T00:12:10.167Z,1019.83
2019-01-06T00:13:10.238Z,1019.88
2019-01-06T00:14:10.227Z,1019.87
2019-01-06T00:15:10.259Z,1019.90
2019-01-06T00:16:10.288Z,1019.85
2019-01-06T00:17:10.319Z,1019.86
2019-01-06T00:18:10.355Z,1019.89
2019-01-06T00:19:10.381Z,1019.93
2019-01-06T00:20:10.408Z,1019.97
2019-01-06T00:21:10.437Z,1019.98
2019-01-06T00:22:10.468Z,1020.02
2019-01-06T00:23:10.499Z,1019.99
2019-01-06T00:24:10.530Z,1020.01
2019-01-06T00:25:10.558Z,1019.99
2019-01-06T00:26:10.587Z,1020.02
2019-01-06T00:27:10.631Z,1020.06
2019-01-06T00:28:10.646Z,1020.05
2019-01-06T00:29:10.677Z,1020.04
2019-01-06T00:30:10.709Z,1020.07
2019-01-06T00:31:10.739Z,1020.07
2019-01-06T00:32:10.767Z,1020.11
2019-01-06T00:33:10.797Z,1020.06
2019-01-06T00:34:10.827Z,1020.07
2019-01-06T00:35:10.857Z,1020.04
2019-01-06T00:36:10.886Z,1020.03
2019-01-06T00:37:10.916Z,1020.11
2019-01-06T00:38:10.953Z,1020.06
2019-01-06T00:39:10.977Z,1020.06
2019-01-06T00:40:11.007Z,1020.11
2019-01-06T00:41:11.036Z,1020.10
2019-01-06T00:42:11.066Z,1020.14
2019-01-06T00:43:11.097Z,1020.09
2019-01-06T00:44:11.125Z,1020.09
2019-01-06T00:45:11.156Z,1020.12
2019-01-06T00:46:11.187Z,1020.13
2019-01-06T00:47:11.216Z,1020.15
2019-01-06T00:48:11.245Z,1020.16
2019-01-06T00:49:11.283Z,1020.11
2019-01-06T00:50:11.305Z,1020.13
2019-01-06T00:51:11.336Z,1020.11
2019-01-06T00:52:11.366Z,1020.15
2019-01-06T00:53:11.395Z,1020.11
2019-01-06T00:54:11.432Z,1020.12
2019-01-06T00:55:11.471Z,1020.12
2019-01-06T00:56:11.488Z,1020.16
2019-01-06T00:57:11.515Z,1020.12
2019-01-06T00:58:11.545Z,1020.10
2019-01-06T00:59:11.574Z,1020.10
2019-01-06T01:00:11.603Z,1020.11
2019-01-06T01:01:11.633Z,1020.14
2019-01-06T01:02:11.664Z,1020.16
2019-01-06T01:03:11.694Z,1020.15
2019-01-06T01:04:11.725Z,1020.13
2019-01-06T01:05:11.753Z,1020.15
2019-01-06T01:06:11.782Z,1020.16
2019-01-06T01:07:11.813Z,1020.19
2019-01-06T01:08:11.841Z,1020.23
2019-01-06T01:09:11.877Z,1020.20
2019-01-06T01:10:11.903Z,1020.17
2019-01-06T01:11:11.933Z,1020.18
2019-01-06T01:12:11.962Z,1020.16
2019-01-06T01:13:11.992Z,1020.17
2019-01-06T01:14:12.021Z,1020.13
2019-01-06T01:15:12.052Z,1020.17
2019-01-06T01:16:12.083Z,1020.19
2019-01-06T01:17:12.112Z,1020.14
2019-01-06T01:18:12.142Z,1020.19
2019-01-06T01:19:12.173Z,1020.19
2019-01-06T01:20:12.201Z,1020.21
2019-01-06T01:21:12.231Z,1020.17
2019-01-06T01:22:12.261Z,1020.17
2019-01-06T01:23:12.291Z,1020.15
2019-01-06T01:24:12.321Z,1020.18
2019-01-06T01:25:12.349Z,1020.20
2019-01-06T01:26:12.379Z,1020.19
2019-01-06T01:27:12.408Z,1020.22
2019-01-06T01:28:12.437Z,1020.17
2019-01-06T01:29:12.475Z,1020.17
2019-01-06T01:30:12.499Z,1020.19
2019-01-06T01:31:12.528Z,1020.18
2019-01-06T01:32:12.558Z,1020.22
2019-01-06T01:33:12.586Z,1020.23
2019-01-06T01:34:12.616Z,1020.24
2019-01-06T01:35:12.646Z,1020.24
2019-01-06T01:36:12.678Z,1020.27
2019-01-06T01:37:12.706Z,1020.25
2019-01-06T01:38:12.736Z,1020.27
2019-01-06T01:39:12.765Z,1020.25
2019-01-06T01:40:12.793Z,1020.25
2019-01-06T01:41:12.824Z,1020.28
2019-01-06T01:42:12.852Z,1020.26
2019-01-06T01:43:12.883Z,1020.30
2019-01-06T01:44:12.912Z,1020.32
2019-01-06T01:45:12.942Z,1020.36
2019-01-06T01:46:12.974Z,1020.36
2019-01-06T01:47:13.004Z,1020.35
2019-01-06T01:48:13.056Z,1020.36
2019-01-06T01:49:13.064Z,1020.37
2019-01-06T01:50:13.090Z,1020.35
2019-01-06T01:51:13.120Z,1020.35
2019-01-06T01:52:13.148Z,1020.31
2019-01-06T01:53:13.177Z,1020.34
2019-01-06T01:54:13.207Z,1020.30
2019-01-06T01:55:13.237Z,1020.38
2019-01-06T01:56:13.266Z,1020.37
2019-01-06T01:57:13.295Z,1020.40
2019-01-06T01:58:13.324Z,1020.39
2019-01-06T01:59:13.355Z,1020.42
2019-01-06T02:00:13.383Z,1020.41
2019-01-06T02:01:13.413Z,1020.38
2019-01-06T02:02:13.448Z,1020.39
2019-01-06T02:03:13.472Z,1020.40
2019-01-06T02:04:13.500Z,1020.41
2019-01-06T02:05:13.534Z,1020.45
2019-01-06T02:06:13.574Z,1020.47
2019-01-06T02:07:13.590Z,1020.47
2019-01-06T02:08:13.617Z,1020.48
2019-01-06T02:09:13.648Z,1020.51
2019-01-06T02:10:13.675Z,1020.54
2019-01-06T02:11:13.710Z,1020.58
2019-01-06T02:12:13.733Z,1020.60
2019-01-06T02:13:13.763Z,1020.60
2019-01-06T02:14:13.792Z,1020.59
2019-01-06T02:15:13.822Z,1020.63
2019-01-06T02:16:13.852Z,1020.64
2019-01-06T02:17:13.880Z,1020.63
2019-01-06T02:18:13.909Z,1020.65
2019-01-06T02:19:13.939Z,1020.69
2019-01-06T02:20:13.968Z,1020.67
2019-01-06T02:21:13.996Z,1020.72
2019-01-06T02:22:14.025Z,1020.71
2019-01-06T02:23:14.054Z,1020.72
2019-01-06T02:24:14.083Z,1020.70
2019-01-06T02:25:14.112Z,1020.67
2019-01-06T02:26:14.141Z,1020.64
2019-01-06T02:27:14.171Z,1020.67
2019-01-06T02:28:14.204Z,1020.70
2019-01-06T02:29:14.228Z,1020.71
2019-01-06T02:30:14.261Z,1020.71
2019-01-06T02:31:14.289Z,1020.71
2019-01-06T02:32:14.334Z,1020.72
2019-01-06T02:33:14.344Z,1020.74
2019-01-06T02:34:14.378Z,1020.75
2019-01-06T02:35:14.404Z,1020.76
2019-01-06T02:36:14.431Z,1020.73
2019-01-06T02:37:14.462Z,1020.72
2019-01-06T02:38:14.494Z,1020.69
2019-01-06T02:39:14.520Z,1020.70
2019-01-06T02:40:14.552Z,1020.71
2019-01-06T02:41:14.576Z,1020.69
2019-01-06T02:42:14.607Z,1020.70
2019-01-06T02:43:14.636Z,1020.62
2019-01-06T02:44:14.663Z,1020.67
2019-01-06T02:45:14.693Z,1020.68
2019-01-06T02:46:14.722Z,1020.65
2019-01-06T02:47:14.753Z,1020.66
2019-01-06T02:48:14.780Z,1020.69
2019-01-06T02:49:14.810Z,1020.64
2019-01-06T02:50:14.920Z,1020.69
2019-01-06T02:51:14.870Z,1020.71
2019-01-06T02:52:14.897Z,1020.76
2019-01-06T02:53:14.925Z,1020.72
2019-01-06T02:54:14.959Z,1020.75
2019-01-06T02:55:14.985Z,1020.74
2019-01-06T02:56:15.011Z,1020.77
2019-01-06T02:57:15.044Z,1020.80
2019-01-06T02:58:15.076Z,1020.88
2019-01-06T02:59:15.102Z,1020.89
2019-01-06T03:00:15.129Z,1020.90
2019-01-06T03:01:15.160Z,1020.91
2019-01-06T03:02:15.187Z,1020.89
2019-01-06T03:03:15.217Z,1020.91
2019-01-06T03:04:15.249Z,1020.88
2019-01-06T03:05:15.277Z,1020.88
2019-01-06T03:06:15.302Z,1020.87
2019-01-06T03:07:15.333Z,1020.89
2019-01-06T03:08:15.360Z,1020.92
2019-01-06T03:09:15.398Z,1020.94
2019-01-06T03:10:15.422Z,1020.95
2019-01-06T03:11:15.449Z,1021.00
2019-01-06T03:12:15.538Z,1020.95
2019-01-06T03:13:15.506Z,1021.01
2019-01-06T03:14:15.535Z,1020.98
2019-01-06T03:15:15.563Z,1020.95
2019-01-06T03:16:15.596Z,1020.95
2019-01-06T03:17:15.621Z,1021.02
2019-01-06T03:18:15.654Z,1021.01
2019-01-06T03:19:15.681Z,1020.99
2019-01-06T03:20:15.710Z,1021.00
2019-01-06T03:21:15.736Z,1020.98
2019-01-06T03:22:15.767Z,1021.00
2019-01-06T03:23:15.797Z,1021.04
2019-01-06T03:24:15.826Z,1021.00
2019-01-06T03:25:15.857Z,1020.99
2019-01-06T03:26:15.882Z,1020.95
2019-01-06T03:27:15.910Z,1020.95
2019-01-06T03:28:15.941Z,1020.94
2019-01-06T03:29:15.969Z,1020.94
2019-01-06T03:30:16.000Z,1020.89
2019-01-06T03:31:16.028Z,1020.90
2019-01-06T03:32:16.058Z,1020.86
2019-01-06T03:33:16.232Z,1020.86
2019-01-06T03:34:16.114Z,1020.94
2019-01-06T03:35:16.144Z,1020.97
2019-01-06T03:36:16.172Z,1020.95
2019-01-06T03:37:16.248Z,1020.93
2019-01-06T03:38:16.231Z,1020.93
2019-01-06T03:39:16.261Z,1020.96
2019-01-06T03:40:16.293Z,1021.01
2019-01-06T03:41:16.320Z,1020.99
2019-01-06T03:42:16.351Z,1020.99
2019-01-06T03:43:16.375Z,1020.97
2019-01-06T03:44:16.403Z,1021.01
2019-01-06T03:45:16.438Z,1021.04
2019-01-06T03:46:16.463Z,1021.01
2019-01-06T03:47:16.492Z,1021.01
2019-01-06T03:48:16.521Z,1021.01
2019-01-06T03:49:16.550Z,1020.96
2019-01-06T03:50:16.579Z,1020.96
2019-01-06T03:51:16.607Z,1020.95
2019-01-06T03:52:16.637Z,1021.01
2019-01-06T03:53:16.665Z,1021.04
2019-01-06T03:54:16.695Z,1021.06
2019-01-06T03:55:16.724Z,1021.06
2019-01-06T03:56:16.752Z,1021.05
2019-01-06T03:57:16.782Z,1021.10
2019-01-06T03:58:16.811Z,1021.08
2019-01-06T03:59:16.840Z,1021.12
2019-01-06T04:00:16.868Z,1021.08
2019-01-06T04:01:16.897Z,1021.09
2019-01-06T04:02:16.926Z,1021.08
2019-01-06T04:03:16.957Z,1021.08
2019-01-06T04:04:16.984Z,1021.09
2019-01-06T04:05:17.014Z,1021.10
2019-01-06T04:06:17.041Z,1021.08
2019-01-06T04:07:17.072Z,1021.09
2019-01-06T04:08:17.106Z,1021.07
2019-01-06T04:09:17.136Z,1021.07
2019-01-06T04:10:17.160Z,1021.06
2019-01-06T04:11:17.188Z,1021.09
2019-01-06T04:12:17.226Z,1021.10
2019-01-06T04:13:17.245Z,1021.10
2019-01-06T04:14:17.277Z,1021.14
2019-01-06T04:15:17.309Z,1021.14
2019-01-06T04:16:17.332Z,1021.17
2019-01-06T04:17:17.362Z,1021.15
2019-01-06T04:18:17.390Z,1021.14
2019-01-06T04:19:17.423Z,1021.15
2019-01-06T04:20:17.450Z,1021.17
2019-01-06T04:21:17.493Z,1021.18
2019-01-06T04:22:17.508Z,1021.19
2019-01-06T04:23:17.538Z,1021.21
2019-01-06T04:24:17.571Z,1021.25
2019-01-06T04:25:17.593Z,1021.21
2019-01-06T04:26:17.623Z,1021.27
2019-01-06T04:27:17.651Z,1021.25
2019-01-06T04:28:17.681Z,1021.22
2019-01-06T04:29:17.710Z,1021.21
2019-01-06T04:30:17.740Z,1021.19
2019-01-06T04:31:17.769Z,1021.20
2019-01-06T04:32:17.797Z,1021.19
2019-01-06T04:33:17.827Z,1021.20
2019-01-06T04:34:17.855Z,1021.22
2019-01-06T04:35:17.889Z,1021.19
2019-01-06T04:36:17.913Z,1021.18
2019-01-06T04:37:17.945Z,1021.17
2019-01-06T04:38:17.973Z,1021.14
2019-01-06T04:39:18.002Z,1021.19
2019-01-06T04:40:18.031Z,1021.15
2019-01-06T04:41:18.060Z,1021.16
2019-01-06T04:42:18.089Z,1021.12
2019-01-06T04:43:18.119Z,1021.08
2019-01-06T04:44:18.146Z,1021.09
2019-01-06T04:45:18.174Z,1021.15
2019-01-06T04:46:18.205Z,1021.14
2019-01-06T04:47:18.236Z,1021.16
2019-01-06T04:48:18.263Z,1021.16
2019-01-06T04:49:18.292Z,1021.19
2019-01-06T04:50:18.322Z,1021.23
2019-01-06T04:51:18.350Z,1021.27
2019-01-06T04:52:18.377Z,1021.26
2019-01-06T04:53:18.414Z,1021.30
2019-01-06T04:54:18.438Z,1021.28
2019-01-06T04:55:18.466Z,1021.29
2019-01-06T04:56:18.494Z,1021.35
2019-01-06T04:57:18.526Z,1021.34
2019-01-06T04:58:18.556Z,1021.35
2019-01-06T04:59:18.584Z,1021.30
2019-01-06T05:00:18.611Z,1021.30
2019-01-06T05:01:18.641Z,1021.31
2019-01-06T05:02:18.678Z,1021.30
2019-01-06T05:03:18.700Z,1021.31
2019-01-06T05:04:18.727Z,1021.32
2019-01-06T05:05:18.757Z,1021.35
2019-01-06T05:06:18.785Z,1021.28
2019-01-06T05:07:18.818Z,1021.27
2019-01-06T05:08:18.844Z,1021.31
2019-01-06T05:09:18.874Z,1021.31
2019-01-06T05:10:18.903Z,1021.34
2019-01-06T05:11:18.931Z,1021.31
2019-01-06T05:12:18.962Z,1021.27
2019-01-06T05:13:18.991Z,1021.32
2019-01-06T05:14:19.018Z,1021.32
2019-01-06T05:15:19.049Z,1021.35
2019-01-06T05:16:19.076Z,1021.34
2019-01-06T05:17:19.106Z,1021.32
2019-01-06T05:18:19.135Z,1021.31
2019-01-06T05:19:19.165Z,1021.28
2019-01-06T05:20:19.192Z,1021.33
2019-01-06T05:21:19.230Z,1021.32
2019-01-06T05:22:19.250Z,1021.29
2019-01-06T05:23:19.279Z,1021.29
2019-01-06T05:24:19.310Z,1021.29
2019-01-06T05:25:19.341Z,1021.28
2019-01-06T05:26:19.368Z,1021.33
2019-01-06T05:27:19.400Z,1021.34
2019-01-06T05:28:19.429Z,1021.33
2019-01-06T05:29:19.454Z,1021.28
2019-01-06T05:30:19.483Z,1021.24
2019-01-06T05:31:19.511Z,1021.27
2019-01-06T05:32:19.540Z,1021.38
2019-01-06T05:33:19.569Z,1021.44
2019-01-06T05:34:19.599Z,1021.40
2019-01-06T05:35:19.628Z,1021.37
2019-01-06T05:36:19.659Z,1021.29
2019-01-06T05:37:19.685Z,1021.32
2019-01-06T05:38:19.715Z,1021.43
2019-01-06T05:39:19.744Z,1021.46
2019-01-06T05:40:19.773Z,1021.48
2019-01-06T05:41:19.807Z,1021.51
2019-01-06T05:42:19.830Z,1021.49
2019-01-06T05:43:19.861Z,1021.55
2019-01-06T05:44:19.889Z,1021.60
2019-01-06T05:45:19.921Z,1021.63
2019-01-06T05:46:19.960Z,1021.61
2019-01-06T05:47:19.976Z,1021.56
2019-01-06T05:48:20.005Z,1021.56
2019-01-06T05:49:20.035Z,1021.67
2019-01-06T05:50:20.062Z,1021.68
2019-01-06T05:51:20.093Z,1021.67
2019-01-06T05:52:20.121Z,1021.68
2019-01-06T05:53:20.150Z,1021.66
2019-01-06T05:54:20.179Z,1021.68
2019-01-06T05:55:20.208Z,1021.65
2019-01-06T05:56:20.242Z,1021.71
2019-01-06T05:57:20.266Z,1021.69
2019-01-06T05:58:20.294Z,1021.75
2019-01-06T05:59:20.325Z,1021.81
2019-01-06T06:00:20.352Z,1021.79
2019-01-06T06:01:20.381Z,1021.77
2019-01-06T06:02:20.410Z,1021.73
2019-01-06T06:03:20.440Z,1021.74
2019-01-06T06:04:20.468Z,1021.79
2019-01-06T06:05:20.497Z,1021.83
2019-01-06T06:06:20.528Z,1021.86
2019-01-06T06:07:20.555Z,1021.86
2019-01-06T06:08:20.587Z,1021.82
2019-01-06T06:09:20.617Z,1021.86
2019-01-06T06:10:20.644Z,1021.81
2019-01-06T06:11:20.673Z,1021.83
2019-01-06T06:12:20.699Z,1021.84
2019-01-06T06:13:20.729Z,1021.86
2019-01-06T06:14:20.757Z,1021.88
2019-01-06T06:15:20.792Z,1021.87
2019-01-06T06:16:20.816Z,1021.92
2019-01-06T06:17:20.845Z,1021.92
2019-01-06T06:18:20.875Z,1021.92
2019-01-06T06:19:20.905Z,1021.87
2019-01-06T06:20:20.932Z,1021.89
2019-01-06T06:21:20.961Z,1021.94
2019-01-06T06:22:20.990Z,1021.95
2019-01-06T06:23:21.019Z,1021.97
2019-01-06T06:24:21.047Z,1021.95
2019-01-06T06:25:21.078Z,1022.02
2019-01-06T06:26:21.107Z,1022.01
2019-01-06T06:27:21.135Z,1022.06
2019-01-06T06:28:21.165Z,1022.02
2019-01-06T06:29:21.193Z,1022.08
2019-01-06T06:30:21.231Z,1022.03
2019-01-06T06:31:21.252Z,1022.01
2019-01-06T06:32:21.280Z,1022.03
2019-01-06T06:33:21.308Z,1022.07
2019-01-06T06:34:21.352Z,1022.15
2019-01-06T06:35:21.373Z,1022.09
2019-01-06T06:36:21.395Z,1022.11
2019-01-06T06:37:21.423Z,1022.14
2019-01-06T06:38:21.455Z,1022.07
2019-01-06T06:39:21.485Z,1022.16
2019-01-06T06:40:21.510Z,1022.16
2019-01-06T06:41:21.541Z,1022.25
2019-01-06T06:42:21.569Z,1022.28
2019-01-06T06:43:21.600Z,1022.27
2019-01-06T06:44:21.649Z,1022.23
2019-01-06T06:45:21.656Z,1022.20
2019-01-06T06:46:21.686Z,1022.20
2019-01-06T06:47:21.715Z,1022.21
2019-01-06T06:48:21.742Z,1022.24
2019-01-06T06:49:21.772Z,1022.25
2019-01-06T06:50:21.801Z,1022.21
2019-01-06T06:51:21.832Z,1022.24
2019-01-06T06:52:21.859Z,1022.25
2019-01-06T06:53:21.887Z,1022.20
2019-01-06T06:54:21.916Z,1022.18
2019-01-06T06:55:21.947Z,1022.20
2019-01-06T06:56:21.974Z,1022.22
2019-01-06T06:57:22.003Z,1022.27
2019-01-06T06:58:22.034Z,1022.28
2019-01-06T06:59:22.062Z,1022.27
2019-01-06T07:00:22.093Z,1022.31
2019-01-06T07:01:22.120Z,1022.33
2019-01-06T07:02:22.150Z,1022.34
2019-01-06T07:03:22.178Z,1022.30
2019-01-06T07:04:22.205Z,1022.32
2019-01-06T07:05:22.236Z,1022.34
2019-01-06T07:06:22.265Z,1022.35
2019-01-06T07:07:22.294Z,1022.28
2019-01-06T07:08:22.323Z,1022.36
2019-01-06T07:09:22.353Z,1022.39
2019-01-06T07:10:22.384Z,1022.39
2019-01-06T07:11:22.411Z,1022.40
2019-01-06T07:12:22.439Z,1022.42
2019-01-06T07:13:22.467Z,1022.40
2019-01-06T07:14:22.498Z,1022.46
2019-01-06T07:15:22.598Z,1022.48
2019-01-06T07:16:22.555Z,1022.44
2019-01-06T07:17:22.591Z,1022.51
2019-01-06T07:18:22.613Z,1022.53
2019-01-06T07:19:22.642Z,1022.55
2019-01-06T07:20:22.670Z,1022.55
2019-01-06T07:21:22.699Z,1022.58
2019-01-06T07:22:22.730Z,1022.58
2019-01-06T07:23:22.758Z,1022.59
2019-01-06T07:24:22.791Z,1022.64
2019-01-06T07:25:22.816Z,1022.67
2019-01-06T07:26:22.844Z,1022.64
2019-01-06T07:27:22.878Z,1022.65
2019-01-06T07:28:22.903Z,1022.64
2019-01-06T07:29:22.931Z,1022.69
2019-01-06T07:30:22.962Z,1022.69
2019-01-06T07:31:22.992Z,1022.70
2019-01-06T07:32:23.020Z,1022.73
2019-01-06T07:33:23.049Z,1022.71
2019-01-06T07:34:23.077Z,1022.69
2019-01-06T07:35:23.107Z,1022.70
2019-01-06T07:36:23.136Z,1022.72
2019-01-06T07:37:23.165Z,1022.69
2019-01-06T07:38:23.195Z,1022.77
2019-01-06T07:39:23.224Z,1022.76
2019-01-06T07:40:23.252Z,1022.73
2019-01-06T07:41:23.280Z,1022.76
2019-01-06T07:42:23.312Z,1022.79
2019-01-06T07:43:23.340Z,1022.75
2019-01-06T07:44:23.369Z,1022.77
2019-01-06T07:45:23.400Z,1022.80
2019-01-06T07:46:23.432Z,1022.79
2019-01-06T07:47:23.460Z,1022.79
2019-01-06T07:48:23.485Z,1022.82
2019-01-06T07:49:23.515Z,1022.82
2019-01-06T07:50:23.544Z,1022.82
2019-01-06T07:51:23.575Z,1022.77
2019-01-06T07:52:23.605Z,1022.76
2019-01-06T07:53:23.632Z,1022.75
2019-01-06T07:54:23.659Z,1022.74
2019-01-06T07:55:23.689Z,1022.78
2019-01-06T07:56:23.718Z,1022.78
2019-01-06T07:57:23.748Z,1022.78
2019-01-06T07:58:23.777Z,1022.76
2019-01-06T07:59:23.807Z,1022.77
2019-01-06T08:00:23.835Z,1022.82
2019-01-06T08:01:23.867Z,1022.80
2019-01-06T08:02:23.893Z,1022.77
2019-01-06T08:03:23.921Z,1022.77
2019-01-06T08:04:23.952Z,1022.79
2019-01-06T08:05:23.980Z,1022.80
2019-01-06T08:06:24.010Z,1022.86
2019-01-06T08:07:24.040Z,1022.86
2019-01-06T08:08:24.068Z,1022.87
2019-01-06T08:09:24.103Z,1022.89
2019-01-06T08:10:24.127Z,1022.91
2019-01-06T08:11:24.158Z,1022.93
2019-01-06T08:12:24.186Z,1022.94
2019-01-06T08:13:24.214Z,1022.96
2019-01-06T08:14:24.244Z,1022.99
2019-01-06T08:15:24.275Z,1023.01
2019-01-06T08:16:24.308Z,1023.00
2019-01-06T08:17:24.333Z,1023.04
2019-01-06T08:18:24.361Z,1023.02
2019-01-06T08:19:24.392Z,1023.00
2019-01-06T08:20:24.419Z,1023.02
2019-01-06T08:21:24.449Z,1023.00
2019-01-06T08:22:24.477Z,1023.01
2019-01-06T08:23:24.507Z,1023.02
2019-01-06T08:24:24.536Z,1023.05
2019-01-06T08:25:24.566Z,1023.07
2019-01-06T08:26:24.595Z,1023.08
2019-01-06T08:27:24.623Z,1023.18
2019-01-06T08:28:24.655Z,1023.18
2019-01-06T08:29:24.689Z,1023.18
2019-01-06T08:30:24.714Z,1023.19
2019-01-06T08:31:24.742Z,1023.18
2019-01-06T08:32:24.771Z,1023.16
2019-01-06T08:33:24.800Z,1023.17
2019-01-06T08:34:24.830Z,1023.20
2019-01-06T08:35:24.859Z,1023.13
2019-01-06T08:36:24.887Z,1023.15
2019-01-06T08:37:24.917Z,1023.16
2019-01-06T08:38:24.946Z,1023.18
2019-01-06T08:39:24.977Z,1023.13
2019-01-06T08:40:25.003Z,1023.15
2019-01-06T08:41:25.035Z,1023.16
2019-01-06T08:42:25.063Z,1023.14
2019-01-06T08:43:25.094Z,1023.15
2019-01-06T08:44:25.143Z,1023.13
2019-01-06T08:45:25.154Z,1023.13
2019-01-06T08:46:25.181Z,1023.10
2019-01-06T08:47:25.212Z,1023.11
2019-01-06T08:48:25.239Z,1023.12
2019-01-06T08:49:25.268Z,1023.15
2019-01-06T08:50:25.305Z,1023.17
2019-01-06T08:51:25.328Z,1023.14
2019-01-06T08:52:25.357Z,1023.14
2019-01-06T08:53:25.386Z,1023.19
2019-01-06T08:54:25.421Z,1023.17
2019-01-06T08:55:25.447Z,1023.18
2019-01-06T08:56:25.475Z,1023.17
2019-01-06T08:57:25.504Z,1023.16
2019-01-06T08:58:25.533Z,1023.21
2019-01-06T08:59:25.564Z,1023.20
2019-01-06T09:00:25.591Z,1023.19
2019-01-06T09:01:25.622Z,1023.22
2019-01-06T09:02:25.650Z,1023.19
2019-01-06T09:03:25.679Z,1023.22
2019-01-06T09:04:25.710Z,1023.27
2019-01-06T09:05:25.738Z,1023.22
2019-01-06T09:06:25.768Z,1023.22
2019-01-06T09:07:25.798Z,1023.25
2019-01-06T09:08:25.826Z,1023.26
2019-01-06T09:09:25.858Z,1023.30
2019-01-06T09:10:25.889Z,1023.30
2019-01-06T09:11:25.915Z,1023.34
2019-01-06T09:12:25.949Z,1023.30
2019-01-06T09:13:25.973Z,1023.28
2019-01-06T09:14:26.005Z,1023.26
2019-01-06T09:15:26.036Z,1023.26
2019-01-06T09:16:26.064Z,1023.30
2019-01-06T09:17:26.093Z,1023.32
2019-01-06T09:18:26.121Z,1023.30
2019-01-06T09:19:26.172Z,1023.31
2019-01-06T09:20:26.180Z,1023.32
2019-01-06T09:21:26.209Z,1023.31
2019-01-06T09:22:26.239Z,1023.27
2019-01-06T09:23:26.274Z,1023.28
2019-01-06T09:24:26.297Z,1023.29
2019-01-06T09:25:26.329Z,1023.29
2019-01-06T09:26:26.357Z,1023.27
2019-01-06T09:27:26.387Z,1023.29
2019-01-06T09:28:26.417Z,1023.27
2019-01-06T09:29:26.446Z,1023.24
2019-01-06T09:30:26.475Z,1023.25
2019-01-06T09:31:26.508Z,1023.24
2019-01-06T09:32:26.536Z,1023.22
2019-01-06T09:33:26.564Z,1023.17
2019-01-06T09:34:26.596Z,1023.22
2019-01-06T09:35:26.624Z,1023.17
2019-01-06T09:36:26.652Z,1023.20
2019-01-06T09:37:26.683Z,1023.23
2019-01-06T09:38:26.712Z,1023.22
2019-01-06T09:39:26.745Z,1023.22
2019-01-06T09:40:27.145Z,1023.23
2019-01-06T09:41:26.802Z,1023.24
2019-01-06T09:42:26.832Z,1023.25
2019-01-06T09:43:26.860Z,1023.26
2019-01-06T09:44:26.889Z,1023.22
2019-01-06T09:45:26.920Z,1023.20
2019-01-06T09:46:26.952Z,1023.19
2019-01-06T09:47:26.979Z,1023.17
2019-01-06T09:48:27.008Z,1023.22
2019-01-06T09:49:27.039Z,1023.24
2019-01-06T09:50:27.069Z,1023.24
2019-01-06T09:51:27.098Z,1023.20
2019-01-06T09:52:27.128Z,1023.23
2019-01-06T09:53:27.156Z,1023.23
2019-01-06T09:54:27.187Z,1023.22
2019-01-06T09:55:27.218Z,1023.23
2019-01-06T09:56:27.247Z,1023.25
2019-01-06T09:57:27.276Z,1023.23
2019-01-06T09:58:27.307Z,1023.28
2019-01-06T09:59:27.337Z,1023.28
2019-01-06T10:00:27.365Z,1023.27
2019-01-06T10:01:27.395Z,1023.26
2019-01-06T10:02:27.425Z,1023.23
2019-01-06T10:03:27.455Z,1023.24
2019-01-06T10:04:34.839Z,1023.28
2019-01-06T10:05:27.515Z,1023.24
2019-01-06T10:06:27.544Z,1023.25
2019-01-06T10:07:27.578Z,1023.24
2019-01-06T10:08:27.603Z,1023.20
2019-01-06T10:09:27.634Z,1023.22
2019-01-06T10:10:27.662Z,1023.19
2019-01-06T10:11:27.694Z,1023.21
2019-01-06T10:12:27.724Z,1023.22
2019-01-06T10:13:27.756Z,1023.24
2019-01-06T10:14:27.820Z,1023.25
2019-01-06T10:15:27.831Z,1023.24
2019-01-06T10:16:27.843Z,1023.22
2019-01-06T10:17:27.873Z,1023.19
2019-01-06T10:18:27.903Z,1023.17
2019-01-06T10:19:27.935Z,1023.19
2019-01-06T10:20:27.962Z,1023.23
2019-01-06T10:21:27.993Z,1023.21
2019-01-06T10:22:28.029Z,1023.24
2019-01-06T10:23:28.054Z,1023.24
2019-01-06T10:24:28.082Z,1023.20
2019-01-06T10:25:28.114Z,1023.23
2019-01-06T10:26:28.147Z,1023.21
2019-01-06T10:27:28.174Z,1023.21
2019-01-06T10:28:28.201Z,1023.24
2019-01-06T10:29:28.235Z,1023.28
2019-01-06T10:30:28.264Z,1023.32
2019-01-06T10:31:28.292Z,1023.31
2019-01-06T10:32:28.321Z,1023.28
2019-01-06T10:33:28.354Z,1023.31
2019-01-06T10:34:28.389Z,1023.28
2019-01-06T10:35:28.413Z,1023.29
2019-01-06T10:36:28.441Z,1023.29
2019-01-06T10:37:28.471Z,1023.25
2019-01-06T10:38:28.503Z,1023.24
2019-01-06T10:39:28.532Z,1023.25
2019-01-06T10:40:28.562Z,1023.21
2019-01-06T10:41:28.592Z,1023.23
2019-01-06T10:42:28.621Z,1023.26
2019-01-06T10:43:28.651Z,1023.29
2019-01-06T10:44:28.681Z,1023.29
2019-01-06T10:45:28.717Z,1023.25
2019-01-06T10:46:28.943Z,1023.26
2019-01-06T10:47:28.772Z,1023.28
2019-01-06T10:48:28.801Z,1023.30
2019-01-06T10:49:28.834Z,1023.27
2019-01-06T10:50:28.863Z,1023.28
2019-01-06T10:51:28.895Z,1023.26
2019-01-06T10:52:28.924Z,1023.26
2019-01-06T10:53:28.955Z,1023.31
2019-01-06T10:54:29.017Z,1023.27
2019-01-06T10:55:29.014Z,1023.31
2019-01-06T10:56:29.045Z,1023.31
2019-01-06T10:57:29.075Z,1023.27
2019-01-06T10:58:29.104Z,1023.30
2019-01-06T10:59:29.138Z,1023.27
2019-01-06T11:00:29.164Z,1023.26
2019-01-06T11:01:29.196Z,1023.28
2019-01-06T11:02:29.525Z,1023.29
2019-01-06T11:03:29.257Z,1023.28
2019-01-06T11:04:29.340Z,1023.26
2019-01-06T11:05:29.317Z,1023.27
2019-01-06T11:06:29.355Z,1023.31
2019-01-06T11:07:29.380Z,1023.25
2019-01-06T11:08:29.408Z,1023.29
2019-01-06T11:09:29.440Z,1023.33
2019-01-06T11:10:29.471Z,1023.33
2019-01-06T11:11:29.498Z,1023.30
2019-01-06T11:12:29.531Z,1023.31
2019-01-06T11:13:29.562Z,1023.26
2019-01-06T11:14:29.590Z,1023.25
2019-01-06T11:15:29.622Z,1023.24
2019-01-06T11:16:29.652Z,1023.23
2019-01-06T11:17:29.684Z,1023.27
2019-01-06T11:18:29.712Z,1023.25
2019-01-06T11:19:29.747Z,1023.24
2019-01-06T11:20:29.774Z,1023.19
2019-01-06T11:21:29.804Z,1023.20
2019-01-06T11:22:29.834Z,1023.17
2019-01-06T11:23:29.864Z,1023.20
2019-01-06T11:24:29.895Z,1023.21
2019-01-06T11:25:29.928Z,1023.24
2019-01-06T11:26:29.958Z,1023.25
2019-01-06T11:27:29.990Z,1023.28
2019-01-06T11:28:30.017Z,1023.28
2019-01-06T11:29:30.049Z,1023.27
2019-01-06T11:30:30.080Z,1023.27
2019-01-06T11:31:30.110Z,1023.24
2019-01-06T11:32:30.140Z,1023.27
2019-01-06T11:33:30.172Z,1023.25
2019-01-06T11:34:30.202Z,1023.27
2019-01-06T11:35:30.236Z,1023.27
2019-01-06T11:36:30.263Z,1023.24
2019-01-06T11:37:30.293Z,1023.22
2019-01-06T11:38:30.327Z,1023.26
2019-01-06T11:39:30.358Z,1023.26
2019-01-06T11:40:30.389Z,1023.23
2019-01-06T11:41:30.419Z,1023.21
2019-01-06T11:42:30.451Z,1023.24
2019-01-06T11:43:30.484Z,1023.24
2019-01-06T11:44:30.515Z,1023.19
2019-01-06T11:45:30.546Z,1023.21
2019-01-06T11:46:30.576Z,1023.25
2019-01-06T11:47:30.610Z,1023.23
2019-01-06T11:48:30.641Z,1023.21
2019-01-06T11:49:30.675Z,1023.23
2019-01-06T11:50:30.705Z,1023.24
2019-01-06T11:51:30.737Z,1023.18
2019-01-06T11:52:30.769Z,1023.23
2019-01-06T11:53:30.800Z,1023.18
2019-01-06T11:54:30.831Z,1023.14
2019-01-06T11:55:30.866Z,1023.19
2019-01-06T11:56:30.895Z,1023.18
2019-01-06T11:57:30.931Z,1023.21
2019-01-06T11:58:30.970Z,1023.21
2019-01-06T11:59:30.992Z,1023.19
2019-01-06T12:00:31.022Z,1023.18
2019-01-06T12:01:31.056Z,1023.20
2019-01-06T12:02:38.790Z,1023.22
2019-01-06T12:03:31.120Z,1023.23
2019-01-06T12:04:31.157Z,1023.25
2019-01-06T12:05:31.192Z,1023.25